Time,TemperatureF,DewpointF,PressureIn,WindDirection,WindDirectionDegrees,WindSpeedMPH,WindSpeedGustMPH,Humidity,HourlyPrecipIn,Conditions,Clouds,dailyrainin,SolarRadiationWatts/m^2,SoftwareType,DateUTC
2013-01-14 00:02:00,74.7,65.1,30.05,NE,40,0.0,0.0,72,0.00,,,0.00,0.0,meteohub,2013-01-14 04:02:00,
2013-01-14 00:07:00,73.9,65.1,30.05,NE,41,0.0,0.0,74,0.00,,,0.00,0.0,meteohub,2013-01-14 04:07:00,
2013-01-14 00:12:00,73.2,65.1,30.05,NE,41,0.0,0.0,76,0.00,,,0.00,0.0,meteohub,2013-01-14 04:12:00,
2013-01-14 00:17:00,72.7,65.1,30.05,NE,41,0.0,0.0,77,0.00,,,0.00,0.0,meteohub,2013-01-14 04:17:00,
2013-01-14 00:22:00,72.3,65.5,30.05,NE,41,0.0,0.0,79,0.00,,,0.00,0.0,meteohub,2013-01-14 04:22:00,
2013-01-14 00:27:00,72.3,65.8,30.05,NE,41,0.0,0.0,80,0.00,,,0.00,0.0,meteohub,2013-01-14 04:27:00,
2013-01-14 00:32:00,72.1,66.0,30.05,NE,41,0.0,0.0,81,0.00,,,0.00,0.0,meteohub,2013-01-14 04:32:00,
2013-01-14 00:37:00,72.1,66.0,30.05,NE,42,0.0,0.0,81,0.00,,,0.00,0.0,meteohub,2013-01-14 04:37:00,
2013-01-14 00:42:00,72.0,66.2,30.05,NE,41,0.0,0.0,82,0.00,,,0.00,0.0,meteohub,2013-01-14 04:42:00,
2013-01-14 00:47:00,71.6,66.2,30.05,NE,41,0.0,0.0,83,0.00,,,0.00,0.0,meteohub,2013-01-14 04:47:00,
2013-01-14 00:52:00,71.6,66.6,30.05,NE,41,0.0,0.0,84,0.00,,,0.00,0.0,meteohub,2013-01-14 04:52:00,
2013-01-14 00:57:00,71.4,66.7,30.05,NE,41,0.0,0.0,85,0.00,,,0.00,0.0,meteohub,2013-01-14 04:57:00,
2013-01-14 01:00:00,71.2,66.6,30.05,NE,40,0.0,0.0,85,0.00,,,0.00,0.0,meteohub,2013-01-14 05:00:00,
2013-01-14 01:01:00,71.2,66.6,30.05,NE,40,0.0,0.0,85,0.00,,,0.00,0.0,meteohub,2013-01-14 05:01:00,
2013-01-14 01:04:00,71.2,66.9,30.05,NE,40,0.0,0.0,86,0.00,,,0.00,0.0,meteohub,2013-01-14 05:04:00,
2013-01-14 01:09:00,71.1,66.7,30.05,NE,40,0.0,0.0,86,0.00,,,0.00,0.0,meteohub,2013-01-14 05:09:00,
2013-01-14 01:14:00,71.2,66.9,30.05,NE,40,0.0,0.0,86,0.00,,,0.00,0.0,meteohub,2013-01-14 05:14:00,
2013-01-14 01:19:00,71.2,67.1,30.05,NE,40,0.0,0.0,87,0.00,,,0.00,0.0,meteohub,2013-01-14 05:19:00,
2013-01-14 01:24:00,71.1,66.9,30.05,NE,40,0.0,0.0,87,0.00,,,0.00,0.0,meteohub,2013-01-14 05:24:00,
2013-01-14 01:29:00,70.9,66.7,30.05,NE,38,0.0,0.0,87,0.00,,,0.00,0.0,meteohub,2013-01-14 05:29:00,
2013-01-14 01:34:00,70.9,66.7,30.05,NE,40,0.0,0.0,87,0.00,,,0.00,0.0,meteohub,2013-01-14 05:34:00,
2013-01-14 01:39:00,70.9,66.7,30.05,NE,40,0.0,0.0,87,0.00,,,0.00,0.0,meteohub,2013-01-14 05:39:00,
2013-01-14 01:44:00,71.1,66.9,30.04,NE,40,0.0,0.0,87,0.00,,,0.00,0.0,meteohub,2013-01-14 05:44:00,
2013-01-14 01:49:00,70.9,66.7,30.04,NE,40,0.0,0.0,87,0.00,,,0.00,0.0,meteohub,2013-01-14 05:49:00,
2013-01-14 01:54:00,71.1,66.9,30.04,NE,40,0.0,0.0,87,0.00,,,0.00,0.0,meteohub,2013-01-14 05:54:00,
2013-01-14 01:59:00,71.1,66.9,30.04,NE,40,0.0,0.0,87,0.00,,,0.00,0.0,meteohub,2013-01-14 05:59:00,
2013-01-14 02:04:00,71.1,66.9,30.04,NE,40,0.0,0.0,87,0.00,,,0.00,0.0,meteohub,2013-01-14 06:04:00,
2013-01-14 02:09:00,71.1,66.9,30.04,NE,40,0.0,0.0,87,0.00,,,0.00,0.0,meteohub,2013-01-14 06:09:00,
2013-01-14 02:14:00,71.1,66.9,30.04,NE,40,0.0,0.0,87,0.00,,,0.00,0.0,meteohub,2013-01-14 06:14:00,
2013-01-14 02:19:00,71.1,66.9,30.04,NE,40,0.0,0.0,87,0.00,,,0.00,0.0,meteohub,2013-01-14 06:19:00,
2013-01-14 02:24:00,71.1,66.9,30.04,NE,40,0.0,0.0,87,0.00,,,0.00,0.0,meteohub,2013-01-14 06:24:00,
2013-01-14 02:29:00,70.9,66.6,30.03,NE,40,0.0,0.0,86,0.00,,,0.00,0.0,meteohub,2013-01-14 06:29:00,
2013-01-14 02:34:00,70.9,66.7,30.03,NE,40,0.0,0.0,87,0.00,,,0.00,0.0,meteohub,2013-01-14 06:34:00,
2013-01-14 02:39:00,70.9,66.6,30.03,NE,40,0.0,0.0,86,0.00,,,0.00,0.0,meteohub,2013-01-14 06:39:00,
2013-01-14 02:44:00,70.9,66.6,30.03,NE,40,0.0,0.0,86,0.00,,,0.00,0.0,meteohub,2013-01-14 06:44:00,
2013-01-14 02:49:00,70.9,66.7,30.03,NE,40,0.0,0.0,87,0.00,,,0.00,0.0,meteohub,2013-01-14 06:49:00,
2013-01-14 02:54:00,70.9,66.7,30.03,NE,40,0.0,0.0,87,0.00,,,0.00,0.0,meteohub,2013-01-14 06:54:00,
2013-01-14 02:59:00,70.5,66.4,30.02,NE,40,0.0,0.0,87,0.00,,,0.00,0.0,meteohub,2013-01-14 06:59:00,
2013-01-14 03:04:00,70.5,66.4,30.02,NE,40,0.0,0.0,87,0.00,,,0.00,0.0,meteohub,2013-01-14 07:04:00,
2013-01-14 03:09:00,70.5,66.4,30.02,NE,40,0.0,0.0,87,0.00,,,0.00,0.0,meteohub,2013-01-14 07:09:00,
2013-01-14 03:14:00,70.5,66.7,30.02,NE,40,0.0,0.0,88,0.00,,,0.00,0.0,meteohub,2013-01-14 07:14:00,
2013-01-14 03:19:00,70.5,66.7,30.02,NE,40,0.0,0.0,88,0.00,,,0.00,0.0,meteohub,2013-01-14 07:19:00,
2013-01-14 03:24:00,70.3,66.6,30.02,NE,40,0.0,0.0,88,0.00,,,0.00,0.0,meteohub,2013-01-14 07:24:00,
2013-01-14 03:29:00,70.5,66.7,30.02,NE,40,0.0,0.0,88,0.00,,,0.00,0.0,meteohub,2013-01-14 07:29:00,
2013-01-14 03:34:00,70.5,66.7,30.02,NE,40,0.0,0.0,88,0.00,,,0.00,0.0,meteohub,2013-01-14 07:34:00,
2013-01-14 03:39:00,70.5,66.7,30.02,NE,41,0.0,0.0,88,0.00,,,0.00,0.0,meteohub,2013-01-14 07:39:00,
2013-01-14 03:44:00,70.5,66.7,30.02,NE,41,0.0,0.0,88,0.00,,,0.00,0.0,meteohub,2013-01-14 07:44:00,
2013-01-14 03:50:00,70.5,66.7,30.02,NE,40,0.0,0.0,88,0.00,,,0.00,0.0,meteohub,2013-01-14 07:50:00,
2013-01-14 03:55:00,70.5,66.7,30.02,NE,41,0.0,0.0,88,0.00,,,0.00,0.0,meteohub,2013-01-14 07:55:00,
2013-01-14 04:00:00,70.3,66.6,30.02,NE,40,0.0,0.0,88,0.00,,,0.00,0.0,meteohub,2013-01-14 08:00:00,
2013-01-14 04:05:00,70.3,66.6,30.02,NE,40,0.0,0.0,88,0.00,,,0.00,0.0,meteohub,2013-01-14 08:05:00,
2013-01-14 04:10:00,70.3,66.6,30.02,NE,40,0.0,0.0,88,0.00,,,0.00,0.0,meteohub,2013-01-14 08:10:00,
2013-01-14 04:15:00,70.3,66.6,30.02,NE,40,0.0,0.0,88,0.00,,,0.00,0.0,meteohub,2013-01-14 08:15:00,
2013-01-14 04:20:00,70.3,66.6,30.02,NE,40,0.0,0.0,88,0.00,,,0.00,0.0,meteohub,2013-01-14 08:20:00,
2013-01-14 04:25:00,70.3,66.6,30.02,NE,40,0.0,0.0,88,0.00,,,0.00,0.0,meteohub,2013-01-14 08:25:00,
2013-01-14 04:30:00,70.3,66.6,30.02,NE,41,0.0,0.0,88,0.00,,,0.00,0.0,meteohub,2013-01-14 08:30:00,
2013-01-14 04:35:00,70.5,66.7,30.02,NE,41,0.0,0.0,88,0.00,,,0.00,0.0,meteohub,2013-01-14 08:35:00,
2013-01-14 04:40:00,70.9,66.7,30.02,NNW,329,0.0,0.0,87,0.00,,,0.00,0.0,meteohub,2013-01-14 08:40:00,
2013-01-14 04:45:00,70.5,66.4,30.03,NNW,330,0.0,0.0,87,0.00,,,0.00,0.0,meteohub,2013-01-14 08:45:00,
2013-01-14 04:50:00,70.9,66.7,30.03,NNW,330,0.0,0.0,87,0.00,,,0.00,0.0,meteohub,2013-01-14 08:50:00,
2013-01-14 04:55:00,71.2,67.1,30.03,NNW,329,0.0,0.0,87,0.00,,,0.00,0.0,meteohub,2013-01-14 08:55:00,
2013-01-14 05:00:00,71.4,67.3,30.03,SE,134,6.0,0.0,87,0.00,,,0.00,0.0,meteohub,2013-01-14 09:00:00,
2013-01-14 05:05:00,71.6,67.8,30.03,SE,124,0.0,103.0,88,0.02,,,0.02,0.0,meteohub,2013-01-14 09:05:00,
2013-01-14 05:11:00,71.2,67.8,30.03,ENE,71,0.0,103.0,89,0.03,,,0.03,0.0,meteohub,2013-01-14 09:11:00,
2013-01-14 05:16:00,71.1,68.4,30.04,East,82,5.0,103.0,91,0.04,,,0.04,0.0,meteohub,2013-01-14 09:16:00,
2013-01-14 05:21:00,70.9,68.7,30.04,East,79,0.0,25.0,93,0.04,,,0.04,0.0,meteohub,2013-01-14 09:21:00,
2013-01-14 05:26:00,70.5,68.7,30.04,ENE,59,1.0,13.0,94,0.05,,,0.05,0.0,meteohub,2013-01-14 09:26:00,
2013-01-14 05:31:00,70.3,68.5,30.05,ENE,65,0.0,13.0,94,0.05,,,0.05,0.0,meteohub,2013-01-14 09:31:00,
2013-01-14 05:36:00,70.2,68.7,30.05,ENE,65,0.0,8.0,95,0.05,,,0.05,0.0,meteohub,2013-01-14 09:36:00,
2013-01-14 05:41:00,70.0,68.7,30.05,ENE,78,0.0,7.0,96,0.08,,,0.08,0.0,meteohub,2013-01-14 09:41:00,
2013-01-14 05:46:00,69.8,68.5,30.05,ESE,102,0.0,0.0,96,0.09,,,0.09,0.0,meteohub,2013-01-14 09:46:00,
2013-01-14 05:51:00,69.6,68.4,30.05,ESE,102,0.0,1.0,96,0.10,,,0.10,0.0,meteohub,2013-01-14 09:51:00,
2013-01-14 05:56:00,69.8,68.9,30.05,ESE,102,0.0,1.0,97,0.10,,,0.10,0.0,meteohub,2013-01-14 09:56:00,
2013-01-14 06:01:00,69.8,68.9,30.06,ESE,102,0.0,0.0,97,0.11,,,0.11,0.0,meteohub,2013-01-14 10:01:00,
2013-01-14 06:06:00,69.6,68.7,30.06,East,93,0.0,2.0,97,0.09,,,0.11,0.0,meteohub,2013-01-14 10:06:00,
2013-01-14 06:11:00,69.8,69.3,30.06,East,99,0.0,2.0,98,0.08,,,0.11,0.0,meteohub,2013-01-14 10:11:00,
2013-01-14 06:16:00,69.8,69.3,30.05,East,99,0.0,2.0,98,0.07,,,0.11,0.0,meteohub,2013-01-14 10:16:00,
2013-01-14 06:21:00,69.6,69.1,30.05,ENE,69,0.0,1.0,98,0.06,,,0.11,0.0,meteohub,2013-01-14 10:21:00,
2013-01-14 06:26:00,69.4,68.9,30.05,ENE,69,0.0,1.0,98,0.06,,,0.11,0.0,meteohub,2013-01-14 10:26:00,
2013-01-14 06:31:00,69.4,68.9,30.05,ENE,68,0.0,1.0,98,0.06,,,0.11,0.0,meteohub,2013-01-14 10:31:00,
2013-01-14 06:36:00,69.3,68.7,30.05,ENE,69,0.0,0.0,98,0.06,,,0.11,0.0,meteohub,2013-01-14 10:36:00,
2013-01-14 06:41:00,69.6,69.1,30.05,ENE,66,0.0,0.0,98,0.03,,,0.11,0.0,meteohub,2013-01-14 10:41:00,
2013-01-14 06:47:00,69.6,69.1,30.05,SSE,168,0.0,1.0,98,0.01,,,0.11,0.0,meteohub,2013-01-14 10:47:00,
2013-01-14 06:52:00,69.6,69.1,30.05,SSE,168,0.0,1.0,98,0.01,,,0.11,0.0,meteohub,2013-01-14 10:52:00,
2013-01-14 06:57:00,69.8,69.3,30.05,SSE,168,0.0,1.0,98,0.01,,,0.11,0.0,meteohub,2013-01-14 10:57:00,
2013-01-14 07:02:00,69.6,69.1,30.06,SSE,168,0.0,0.0,98,0.00,,,0.11,0.0,meteohub,2013-01-14 11:02:00,
2013-01-14 07:07:00,69.6,69.1,30.06,SSE,167,0.0,0.0,98,0.00,,,0.11,0.0,meteohub,2013-01-14 11:07:00,
2013-01-14 07:12:00,69.6,69.1,30.06,SSE,167,0.0,0.0,98,0.00,,,0.11,5.0,meteohub,2013-01-14 11:12:00,
2013-01-14 07:17:00,69.6,69.1,30.06,SSE,168,0.0,0.0,98,0.00,,,0.11,14.0,meteohub,2013-01-14 11:17:00,
2013-01-14 07:22:00,69.8,69.4,30.06,SSE,167,0.0,0.0,99,0.00,,,0.11,26.0,meteohub,2013-01-14 11:22:00,
2013-01-14 07:27:00,69.8,69.4,30.06,SSE,168,0.0,0.0,99,0.00,,,0.11,30.0,meteohub,2013-01-14 11:27:00,
2013-01-14 07:32:00,69.8,69.4,30.07,SSE,168,0.0,0.0,99,0.00,,,0.11,40.0,meteohub,2013-01-14 11:32:00,
2013-01-14 07:37:00,70.0,69.6,30.07,SSE,167,0.0,0.0,99,0.00,,,0.11,120.0,meteohub,2013-01-14 11:37:00,
2013-01-14 07:42:00,70.2,69.8,30.07,SSE,168,0.0,0.0,99,0.00,,,0.11,141.0,meteohub,2013-01-14 11:42:00,
2013-01-14 07:47:00,70.0,69.6,30.07,SSE,168,0.0,0.0,99,0.00,,,0.11,151.0,meteohub,2013-01-14 11:47:00,
2013-01-14 07:52:00,70.2,69.8,30.07,SSE,168,0.0,0.0,99,0.00,,,0.11,114.0,meteohub,2013-01-14 11:52:00,
2013-01-14 07:57:00,70.3,70.0,30.07,SSE,168,0.0,0.0,99,0.00,,,0.11,209.0,meteohub,2013-01-14 11:57:00,
2013-01-14 08:02:00,70.9,70.5,30.08,SSE,168,0.0,0.0,99,0.00,,,0.11,230.0,meteohub,2013-01-14 12:02:00,
2013-01-14 08:07:00,71.1,70.5,30.08,SSE,168,0.0,0.0,98,0.00,,,0.11,238.0,meteohub,2013-01-14 12:07:00,
2013-01-14 08:12:00,70.9,70.3,30.08,South,169,0.0,0.0,98,0.00,,,0.11,245.0,meteohub,2013-01-14 12:12:00,
2013-01-14 08:17:00,71.4,70.5,30.09,SSE,168,0.0,0.0,97,0.00,,,0.11,264.0,meteohub,2013-01-14 12:17:00,
2013-01-14 08:22:00,71.8,70.9,30.09,SSE,168,0.0,0.0,97,0.00,,,0.11,274.0,meteohub,2013-01-14 12:22:00,
2013-01-14 08:27:00,71.8,70.5,30.09,SSE,168,0.0,0.0,96,0.00,,,0.11,262.0,meteohub,2013-01-14 12:27:00,
2013-01-14 08:32:00,72.3,70.9,30.09,SSE,168,0.0,0.0,95,0.00,,,0.11,341.0,meteohub,2013-01-14 12:32:00,
2013-01-14 08:37:00,72.5,71.1,30.09,SSE,168,0.0,0.0,95,0.00,,,0.11,132.0,meteohub,2013-01-14 12:37:00,
2013-01-14 08:43:00,72.9,71.1,30.09,SSE,168,0.0,0.0,94,0.00,,,0.11,371.0,meteohub,2013-01-14 12:43:00,
2013-01-14 08:48:00,73.0,70.9,30.09,SSE,168,0.0,0.0,93,0.00,,,0.11,403.0,meteohub,2013-01-14 12:48:00,
2013-01-14 08:53:00,73.8,71.6,30.09,SSE,168,0.0,0.0,93,0.00,,,0.11,426.0,meteohub,2013-01-14 12:53:00,
2013-01-14 08:58:00,73.9,71.1,30.10,SSE,168,0.0,0.0,91,0.00,,,0.11,401.0,meteohub,2013-01-14 12:58:00,
2013-01-14 09:03:00,74.1,71.1,30.10,SSE,168,0.0,0.0,90,0.00,,,0.11,484.0,meteohub,2013-01-14 13:03:00,
2013-01-14 09:08:00,74.7,70.9,30.10,South,169,0.0,0.0,88,0.00,,,0.11,507.0,meteohub,2013-01-14 13:08:00,
2013-01-14 09:13:00,75.4,70.9,30.10,SSE,168,0.0,0.0,86,0.00,,,0.11,496.0,meteohub,2013-01-14 13:13:00,
2013-01-14 09:18:00,75.7,70.9,30.10,SSE,168,0.0,0.0,85,0.00,,,0.11,494.0,meteohub,2013-01-14 13:18:00,
2013-01-14 09:23:00,75.9,70.3,30.10,South,169,0.0,0.0,83,0.00,,,0.11,493.0,meteohub,2013-01-14 13:23:00,
2013-01-14 09:28:00,76.6,70.7,30.10,SSE,168,0.0,0.0,82,0.00,,,0.11,523.0,meteohub,2013-01-14 13:28:00,
2013-01-14 09:33:00,77.0,70.3,30.10,SSE,168,0.0,0.0,80,0.00,,,0.11,584.0,meteohub,2013-01-14 13:33:00,
2013-01-14 09:38:00,77.4,69.6,30.10,NE,52,0.0,0.0,77,0.00,,,0.11,639.0,meteohub,2013-01-14 13:38:00,
2013-01-14 09:43:00,77.9,69.3,30.10,ENE,76,0.0,5.0,75,0.00,,,0.11,591.0,meteohub,2013-01-14 13:43:00,
2013-01-14 09:48:00,78.3,69.6,30.10,ENE,66,0.0,5.0,75,0.00,,,0.11,595.0,meteohub,2013-01-14 13:48:00,
2013-01-14 09:53:00,78.4,69.8,30.10,NE,38,0.0,6.0,75,0.00,,,0.11,621.0,meteohub,2013-01-14 13:53:00,
2013-01-14 09:58:00,78.8,70.2,30.10,NE,37,0.0,6.0,75,0.00,,,0.11,611.0,meteohub,2013-01-14 13:58:00,
2013-01-14 10:03:00,79.0,70.0,30.10,NE,48,0.0,6.0,74,0.00,,,0.11,632.0,meteohub,2013-01-14 14:03:00,
2013-01-14 10:08:00,79.3,70.7,30.10,NNE,31,0.0,3.0,75,0.00,,,0.11,688.0,meteohub,2013-01-14 14:08:00,
2013-01-14 10:13:00,79.5,68.9,30.10,NE,38,0.0,3.0,70,0.00,,,0.11,728.0,meteohub,2013-01-14 14:13:00,
2013-01-14 10:18:00,79.2,68.2,30.10,NE,52,0.0,3.0,69,0.00,,,0.11,273.0,meteohub,2013-01-14 14:18:00,
2013-01-14 10:23:00,78.8,67.8,30.10,NE,40,0.0,6.0,69,0.00,,,0.11,267.0,meteohub,2013-01-14 14:23:00,
2013-01-14 10:28:00,78.6,67.6,30.09,ENE,66,0.0,6.0,69,0.00,,,0.11,320.0,meteohub,2013-01-14 14:28:00,
2013-01-14 10:33:00,78.8,67.3,30.09,ENE,76,4.0,8.0,68,0.00,,,0.11,194.0,meteohub,2013-01-14 14:33:00,
2013-01-14 10:38:00,78.3,68.0,30.09,ENE,66,6.0,11.0,71,0.00,,,0.11,171.0,meteohub,2013-01-14 14:38:00,
2013-01-14 10:43:00,77.5,68.5,30.09,ENE,71,0.0,12.0,74,0.00,,,0.11,169.0,meteohub,2013-01-14 14:43:00,
2013-01-14 10:49:00,77.4,68.0,30.09,ENE,58,8.0,12.0,73,0.00,,,0.11,185.0,meteohub,2013-01-14 14:49:00,
2013-01-14 10:53:00,77.2,68.2,30.09,ENE,72,0.0,12.0,74,0.00,,,0.11,278.0,meteohub,2013-01-14 14:53:00,
2013-01-14 10:58:00,77.4,67.6,30.08,ENE,61,0.0,10.0,72,0.00,,,0.11,375.0,meteohub,2013-01-14 14:58:00,
2013-01-14 11:03:00,78.1,68.4,30.08,East,89,11.0,11.0,72,0.00,,,0.11,385.0,meteohub,2013-01-14 15:03:00,
2013-01-14 11:09:00,78.4,68.7,30.08,NE,38,0.0,11.0,72,0.00,,,0.11,336.0,meteohub,2013-01-14 15:09:00,
2013-01-14 11:14:00,78.4,67.8,30.07,ENE,66,5.0,11.0,70,0.00,,,0.11,245.0,meteohub,2013-01-14 15:14:00,
2013-01-14 11:19:00,78.4,67.8,30.07,ENE,62,0.0,13.0,70,0.00,,,0.11,310.0,meteohub,2013-01-14 15:19:00,
2013-01-14 11:24:00,78.4,67.8,30.07,ENE,73,10.0,13.0,70,0.00,,,0.11,468.0,meteohub,2013-01-14 15:24:00,
2013-01-14 11:29:00,78.8,67.8,30.07,East,89,7.0,12.0,69,0.00,,,0.11,605.0,meteohub,2013-01-14 15:29:00,
2013-01-14 11:34:00,79.3,67.8,30.07,NE,52,9.0,13.0,68,0.00,,,0.11,436.0,meteohub,2013-01-14 15:34:00,
2013-01-14 11:39:00,79.3,67.5,30.07,NE,48,8.0,13.0,67,0.00,,,0.11,385.0,meteohub,2013-01-14 15:39:00,
2013-01-14 11:44:00,79.5,68.0,30.06,ENE,78,7.0,14.0,68,0.00,,,0.11,370.0,meteohub,2013-01-14 15:44:00,
2013-01-14 11:49:00,79.5,67.6,30.06,ENE,68,9.0,14.0,67,0.00,,,0.11,686.0,meteohub,2013-01-14 15:49:00,
2013-01-14 11:54:00,79.5,67.6,30.06,NE,48,12.0,14.0,67,0.00,,,0.11,611.0,meteohub,2013-01-14 15:54:00,
2013-01-14 11:59:00,79.9,68.4,30.06,ESE,102,6.0,17.0,68,0.00,,,0.11,867.0,meteohub,2013-01-14 15:59:00,
2013-01-14 12:04:00,80.2,67.8,30.06,NE,47,6.0,17.0,66,0.00,,,0.11,832.0,meteohub,2013-01-14 16:04:00,
2013-01-14 12:09:00,80.4,67.6,30.06,East,83,10.0,16.0,65,0.00,,,0.11,746.0,meteohub,2013-01-14 16:09:00,
2013-01-14 12:14:00,80.8,68.0,30.05,ENE,58,11.0,16.0,65,0.00,,,0.11,876.0,meteohub,2013-01-14 16:14:00,
2013-01-14 12:19:00,81.0,68.0,30.05,East,86,5.0,16.0,65,0.00,,,0.11,876.0,meteohub,2013-01-14 16:19:00,
2013-01-14 12:24:00,81.0,67.6,30.05,ENE,69,11.0,13.0,64,0.00,,,0.11,913.0,meteohub,2013-01-14 16:24:00,
2013-01-14 12:29:00,81.0,67.1,30.05,NNE,20,3.0,13.0,63,0.00,,,0.11,581.0,meteohub,2013-01-14 16:29:00,
2013-01-14 12:34:00,80.2,67.5,30.05,NE,35,6.0,14.0,65,0.00,,,0.11,389.0,meteohub,2013-01-14 16:34:00,
2013-01-14 12:39:00,80.2,67.5,30.05,East,96,1.0,14.0,65,0.00,,,0.11,762.0,meteohub,2013-01-14 16:39:00,
2013-01-14 12:44:00,81.0,68.0,30.04,East,100,5.0,14.0,65,0.00,,,0.11,304.0,meteohub,2013-01-14 16:44:00,
2013-01-14 12:49:00,80.2,67.5,30.04,ENE,65,11.0,13.0,65,0.00,,,0.11,278.0,meteohub,2013-01-14 16:49:00,
2013-01-14 12:54:00,80.4,68.5,30.04,East,95,0.0,13.0,67,0.00,,,0.11,952.0,meteohub,2013-01-14 16:54:00,
2013-01-14 12:59:00,81.1,68.7,30.04,ENE,58,7.0,13.0,66,0.00,,,0.11,1010.0,meteohub,2013-01-14 16:59:00,
2013-01-14 13:04:00,81.1,68.7,30.04,ENE,66,2.0,13.0,66,0.00,,,0.11,929.0,meteohub,2013-01-14 17:04:00,
2013-01-14 13:09:00,81.1,68.2,30.04,NE,35,0.0,14.0,65,0.00,,,0.11,274.0,meteohub,2013-01-14 17:09:00,
2013-01-14 13:14:00,81.3,67.5,30.03,ESE,102,6.0,14.0,63,0.00,,,0.11,683.0,meteohub,2013-01-14 17:14:00,
2013-01-14 13:20:00,81.3,68.4,30.03,ENE,58,0.0,14.0,65,0.00,,,0.11,487.0,meteohub,2013-01-14 17:20:00,
2013-01-14 13:25:00,81.1,68.2,30.03,NE,47,1.0,11.0,65,0.00,,,0.11,1107.0,meteohub,2013-01-14 17:25:00,
2013-01-14 13:30:00,81.1,67.8,30.03,East,100,1.0,16.0,64,0.00,,,0.11,723.0,meteohub,2013-01-14 17:30:00,
2013-01-14 13:35:00,81.1,68.2,30.03,NNE,31,0.0,16.0,65,0.00,,,0.11,378.0,meteohub,2013-01-14 17:35:00,
2013-01-14 13:40:00,81.0,68.0,30.03,NE,45,8.0,16.0,65,0.00,,,0.11,429.0,meteohub,2013-01-14 17:40:00,
2013-01-14 13:45:00,80.4,67.6,30.02,ENE,64,1.0,14.0,65,0.00,,,0.11,311.0,meteohub,2013-01-14 17:45:00,
2013-01-14 13:50:00,80.4,68.9,30.02,East,79,7.0,14.0,68,0.00,,,0.11,616.0,meteohub,2013-01-14 17:50:00,
2013-01-14 13:55:00,80.4,68.9,30.02,East,89,2.0,14.0,68,0.00,,,0.11,371.0,meteohub,2013-01-14 17:55:00,
2013-01-14 14:00:00,80.2,68.7,30.02,NE,38,0.0,13.0,68,0.00,,,0.11,257.0,meteohub,2013-01-14 18:00:00,
2013-01-14 14:05:00,79.5,68.5,30.02,East,86,0.0,12.0,69,0.00,,,0.11,259.0,meteohub,2013-01-14 18:05:00,
2013-01-14 14:10:00,79.3,67.8,30.02,NE,40,0.0,12.0,68,0.00,,,0.11,259.0,meteohub,2013-01-14 18:10:00,
2013-01-14 14:15:00,79.3,66.9,30.01,NE,45,6.0,12.0,66,0.00,,,0.11,783.0,meteohub,2013-01-14 18:15:00,
2013-01-14 14:20:00,80.8,67.5,30.01,NE,56,10.0,13.0,64,0.00,,,0.11,734.0,meteohub,2013-01-14 18:20:00,
2013-01-14 14:25:00,81.1,67.3,30.01,NE,52,6.0,13.0,63,0.00,,,0.11,699.0,meteohub,2013-01-14 18:25:00,
2013-01-14 14:30:00,81.1,67.8,30.01,East,79,6.0,12.0,64,0.00,,,0.11,688.0,meteohub,2013-01-14 18:30:00,
2013-01-14 14:35:00,81.3,67.1,30.01,East,99,0.0,12.0,62,0.00,,,0.11,691.0,meteohub,2013-01-14 18:35:00,
2013-01-14 14:41:00,81.9,67.6,30.01,NNE,13,6.0,12.0,62,0.00,,,0.11,677.0,meteohub,2013-01-14 18:41:00,
2013-01-14 14:46:00,81.9,67.6,30.01,NE,56,7.0,16.0,62,0.00,,,0.11,677.0,meteohub,2013-01-14 18:46:00,
2013-01-14 14:51:00,81.3,67.1,30.01,ENE,72,6.0,16.0,62,0.00,,,0.11,683.0,meteohub,2013-01-14 18:51:00,
2013-01-14 14:56:00,81.0,67.6,30.01,NE,51,1.0,16.0,64,0.00,,,0.11,646.0,meteohub,2013-01-14 18:56:00,
2013-01-14 15:01:00,81.1,67.3,30.01,ENE,69,0.0,13.0,63,0.00,,,0.11,648.0,meteohub,2013-01-14 19:01:00,
2013-01-14 15:06:00,81.1,66.4,30.01,NNE,28,7.0,13.0,61,0.00,,,0.11,602.0,meteohub,2013-01-14 19:06:00,
2013-01-14 15:11:00,81.3,66.6,30.01,NE,41,6.0,17.0,61,0.00,,,0.11,581.0,meteohub,2013-01-14 19:11:00,
2013-01-14 15:16:00,81.1,64.9,30.01,ENE,71,10.0,17.0,58,0.00,,,0.11,560.0,meteohub,2013-01-14 19:16:00,
2013-01-14 15:21:00,81.1,64.9,30.01,NNE,13,5.0,17.0,58,0.00,,,0.11,542.0,meteohub,2013-01-14 19:21:00,
2013-01-14 15:26:00,81.1,65.5,30.01,NNE,31,0.0,17.0,59,0.00,,,0.11,526.0,meteohub,2013-01-14 19:26:00,
2013-01-14 15:31:00,81.1,65.5,30.01,East,97,0.0,17.0,59,0.00,,,0.11,510.0,meteohub,2013-01-14 19:31:00,
2013-01-14 15:36:00,81.1,64.9,30.01,East,92,0.0,17.0,58,0.00,,,0.11,498.0,meteohub,2013-01-14 19:36:00,
2013-01-14 15:41:00,81.3,66.6,30.01,ENE,58,10.0,14.0,61,0.00,,,0.11,494.0,meteohub,2013-01-14 19:41:00,
2013-01-14 15:46:00,81.1,66.9,30.01,East,90,6.0,14.0,62,0.00,,,0.11,465.0,meteohub,2013-01-14 19:46:00,
2013-01-14 15:51:00,81.0,66.7,30.01,ENE,65,0.0,14.0,62,0.00,,,0.11,445.0,meteohub,2013-01-14 19:51:00,
2013-01-14 15:56:00,80.8,66.0,30.01,ENE,75,0.0,13.0,61,0.00,,,0.11,422.0,meteohub,2013-01-14 19:56:00,
2013-01-14 16:01:00,80.8,65.7,30.01,East,96,0.0,11.0,60,0.00,,,0.11,405.0,meteohub,2013-01-14 20:01:00,
2013-01-14 16:06:00,81.0,66.7,30.01,ESE,119,0.0,11.0,62,0.00,,,0.11,385.0,meteohub,2013-01-14 20:06:00,
2013-01-14 16:11:00,80.4,66.2,30.01,NE,48,7.0,12.0,62,0.00,,,0.11,366.0,meteohub,2013-01-14 20:11:00,
2013-01-14 16:16:00,80.1,66.7,30.02,East,80,2.0,12.0,64,0.00,,,0.11,282.0,meteohub,2013-01-14 20:16:00,
2013-01-14 16:21:00,79.9,66.2,30.02,East,99,6.0,12.0,63,0.00,,,0.11,53.0,meteohub,2013-01-14 20:21:00,
2013-01-14 16:26:00,79.9,67.1,30.02,ENE,61,5.0,12.0,65,0.00,,,0.11,51.0,meteohub,2013-01-14 20:26:00,
2013-01-14 16:31:00,79.5,67.1,30.02,ENE,58,5.0,12.0,66,0.00,,,0.11,51.0,meteohub,2013-01-14 20:31:00,
2013-01-14 16:36:00,79.5,65.3,30.02,East,96,6.0,12.0,62,0.00,,,0.11,76.0,meteohub,2013-01-14 20:36:00,
2013-01-14 16:42:00,79.3,65.7,30.02,ENE,58,0.0,12.0,63,0.00,,,0.11,206.0,meteohub,2013-01-14 20:42:00,
2013-01-14 16:47:00,79.2,66.7,30.03,East,95,6.0,12.0,66,0.00,,,0.11,238.0,meteohub,2013-01-14 20:47:00,
2013-01-14 16:52:00,78.8,67.3,30.03,East,82,6.0,12.0,68,0.00,,,0.11,158.0,meteohub,2013-01-14 20:52:00,
2013-01-14 16:57:00,78.6,67.6,30.03,East,95,4.0,12.0,69,0.00,,,0.11,70.0,meteohub,2013-01-14 20:57:00,
2013-01-14 17:02:00,78.4,67.5,30.03,ENE,71,6.0,12.0,69,0.00,,,0.11,35.0,meteohub,2013-01-14 21:02:00,
2013-01-14 17:07:00,78.3,67.3,30.03,ENE,59,3.0,11.0,69,0.00,,,0.11,32.0,meteohub,2013-01-14 21:07:00,
2013-01-14 17:12:00,78.3,66.7,30.03,East,92,4.0,11.0,68,0.00,,,0.11,32.0,meteohub,2013-01-14 21:12:00,
2013-01-14 17:17:00,78.1,67.5,30.03,ENE,76,3.0,11.0,70,0.00,,,0.11,26.0,meteohub,2013-01-14 21:17:00,
2013-01-14 17:22:00,78.1,67.5,30.03,East,88,2.0,10.0,70,0.00,,,0.11,25.0,meteohub,2013-01-14 21:22:00,
2013-01-14 17:27:00,77.9,66.9,30.03,East,89,0.0,10.0,69,0.00,,,0.11,23.0,meteohub,2013-01-14 21:27:00,
2013-01-14 17:32:00,77.7,66.7,30.03,NE,42,0.0,10.0,69,0.00,,,0.11,25.0,meteohub,2013-01-14 21:32:00,
2013-01-14 17:37:00,77.7,67.1,30.03,NE,52,0.0,10.0,70,0.00,,,0.11,23.0,meteohub,2013-01-14 21:37:00,
2013-01-14 17:42:00,77.7,67.6,30.03,East,96,7.0,8.0,71,0.00,,,0.11,30.0,meteohub,2013-01-14 21:42:00,
2013-01-14 17:47:00,77.5,67.5,30.03,East,82,0.0,8.0,71,0.00,,,0.11,53.0,meteohub,2013-01-14 21:47:00,
2013-01-14 17:52:00,77.7,68.0,30.03,ENE,72,7.0,10.0,72,0.00,,,0.11,72.0,meteohub,2013-01-14 21:52:00,
2013-01-14 17:57:00,77.7,69.1,30.03,East,82,0.0,12.0,75,0.00,,,0.11,35.0,meteohub,2013-01-14 21:57:00,
2013-01-14 18:02:00,77.0,68.9,30.04,ESE,120,0.0,12.0,76,0.00,,,0.11,12.0,meteohub,2013-01-14 22:02:00,
2013-01-14 18:07:00,76.5,68.7,30.04,East,92,0.0,12.0,77,0.00,,,0.11,5.0,meteohub,2013-01-14 22:07:00,
2013-01-14 18:12:00,76.5,68.7,30.04,ENE,69,0.0,11.0,77,0.00,,,0.11,0.0,meteohub,2013-01-14 22:12:00,
2013-01-14 18:17:00,76.5,69.1,30.04,East,93,0.0,5.0,78,0.00,,,0.11,0.0,meteohub,2013-01-14 22:17:00,
2013-01-14 18:22:00,76.5,69.1,30.04,ENE,66,0.0,7.0,78,0.00,,,0.11,0.0,meteohub,2013-01-14 22:22:00,
2013-01-14 18:28:00,76.5,69.1,30.04,ESE,104,0.0,7.0,78,0.00,,,0.11,0.0,meteohub,2013-01-14 22:28:00,
2013-01-14 18:33:00,76.5,69.1,30.04,ENE,71,0.0,10.0,78,0.00,,,0.11,0.0,meteohub,2013-01-14 22:33:00,
2013-01-14 18:37:00,76.3,68.9,30.04,East,88,0.0,10.0,78,0.00,,,0.11,0.0,meteohub,2013-01-14 22:37:00,
2013-01-14 18:43:00,76.3,68.5,30.04,NE,56,2.0,10.0,77,0.00,,,0.11,0.0,meteohub,2013-01-14 22:43:00,
2013-01-14 18:48:00,76.5,68.7,30.04,East,93,0.0,8.0,77,0.00,,,0.11,0.0,meteohub,2013-01-14 22:48:00,
2013-01-14 18:53:00,76.3,68.5,30.04,East,85,0.0,7.0,77,0.00,,,0.11,0.0,meteohub,2013-01-14 22:53:00,
2013-01-14 18:58:00,76.3,68.5,30.04,ENE,76,0.0,7.0,77,0.00,,,0.11,0.0,meteohub,2013-01-14 22:58:00,
2013-01-14 19:03:00,76.3,68.5,30.04,ENE,66,0.0,7.0,77,0.00,,,0.11,0.0,meteohub,2013-01-14 23:03:00,
2013-01-14 19:08:00,76.3,68.2,30.04,ENE,68,0.0,7.0,76,0.00,,,0.11,0.0,meteohub,2013-01-14 23:08:00,
2013-01-14 19:13:00,76.1,68.0,30.04,ENE,68,0.0,6.0,76,0.00,,,0.11,0.0,meteohub,2013-01-14 23:13:00,
2013-01-14 19:18:00,76.1,68.4,30.04,ENE,62,0.0,1.0,77,0.00,,,0.11,0.0,meteohub,2013-01-14 23:18:00,
2013-01-14 19:23:00,76.1,68.4,30.04,ENE,62,0.0,1.0,77,0.00,,,0.11,0.0,meteohub,2013-01-14 23:23:00,
2013-01-14 19:28:00,75.9,68.2,30.04,ENE,62,0.0,1.0,77,0.00,,,0.11,0.0,meteohub,2013-01-14 23:28:00,
2013-01-14 19:33:00,75.9,68.2,30.04,ENE,62,0.0,0.0,77,0.00,,,0.11,0.0,meteohub,2013-01-14 23:33:00,
2013-01-14 19:38:00,75.7,68.0,30.04,ENE,62,0.0,0.0,77,0.00,,,0.11,0.0,meteohub,2013-01-14 23:38:00,
2013-01-14 19:43:00,75.6,67.8,30.05,ENE,62,0.0,0.0,77,0.00,,,0.11,0.0,meteohub,2013-01-14 23:43:00,
2013-01-14 19:48:00,75.4,68.0,30.05,ENE,62,0.0,0.0,78,0.00,,,0.11,0.0,meteohub,2013-01-14 23:48:00,
2013-01-14 19:53:00,75.4,68.0,30.05,ENE,62,0.0,0.0,78,0.00,,,0.11,0.0,meteohub,2013-01-14 23:53:00,
2013-01-14 19:58:00,75.4,68.4,30.05,ENE,64,0.0,0.0,79,0.00,,,0.11,0.0,meteohub,2013-01-14 23:58:00,
2013-01-14 20:03:00,75.0,68.0,30.05,ENE,62,0.0,0.0,79,0.00,,,0.11,0.0,meteohub,2013-01-15 00:03:00,
2013-01-14 20:08:00,75.4,68.4,30.05,ENE,65,6.0,0.0,79,0.00,,,0.11,0.0,meteohub,2013-01-15 00:08:00,
2013-01-14 20:13:00,75.6,68.5,30.05,ENE,78,0.0,8.0,79,0.00,,,0.11,0.0,meteohub,2013-01-15 00:13:00,
2013-01-14 20:18:00,75.6,68.5,30.05,ENE,78,0.0,8.0,79,0.00,,,0.11,0.0,meteohub,2013-01-15 00:18:00,
2013-01-14 20:23:00,75.4,68.7,30.05,ENE,78,0.0,8.0,80,0.00,,,0.11,0.0,meteohub,2013-01-15 00:23:00,
2013-01-14 20:28:00,75.0,68.4,30.05,East,79,0.0,3.0,80,0.00,,,0.11,0.0,meteohub,2013-01-15 00:28:00,
2013-01-14 20:33:00,74.7,68.4,30.05,ENE,78,0.0,0.0,81,0.00,,,0.11,0.0,meteohub,2013-01-15 00:33:00,
2013-01-14 20:38:00,74.7,68.4,30.05,ENE,78,0.0,0.0,81,0.00,,,0.11,0.0,meteohub,2013-01-15 00:38:00,
2013-01-14 20:43:00,74.7,68.4,30.06,ENE,78,0.0,0.0,81,0.00,,,0.11,0.0,meteohub,2013-01-15 00:43:00,
2013-01-14 20:49:00,74.7,68.4,30.06,ENE,76,0.0,0.0,81,0.00,,,0.11,0.0,meteohub,2013-01-15 00:49:00,
2013-01-14 20:54:00,74.7,68.4,30.06,ENE,78,0.0,0.0,81,0.00,,,0.11,0.0,meteohub,2013-01-15 00:54:00,
2013-01-14 20:59:00,74.5,68.5,30.06,ENE,78,0.0,0.0,82,0.00,,,0.11,0.0,meteohub,2013-01-15 00:59:00,
2013-01-14 21:04:00,74.5,68.5,30.06,ENE,78,0.0,0.0,82,0.00,,,0.11,0.0,meteohub,2013-01-15 01:04:00,
2013-01-14 21:09:00,74.7,69.1,30.06,ENE,78,0.0,0.0,83,0.00,,,0.11,0.0,meteohub,2013-01-15 01:09:00,
2013-01-14 21:14:00,74.5,68.9,30.07,East,89,0.0,0.0,83,0.00,,,0.11,0.0,meteohub,2013-01-15 01:14:00,
2013-01-14 21:19:00,73.9,68.7,30.07,East,88,0.0,1.0,84,0.00,,,0.11,0.0,meteohub,2013-01-15 01:19:00,
2013-01-14 21:24:00,73.2,68.7,30.07,ESE,116,0.0,1.0,86,0.01,,,0.12,0.0,meteohub,2013-01-15 01:24:00,
2013-01-14 21:29:00,72.9,69.1,30.06,ESE,117,0.0,1.0,88,0.02,,,0.13,0.0,meteohub,2013-01-15 01:29:00,
2013-01-14 21:34:00,72.7,69.6,30.06,ESE,116,0.0,0.0,90,0.02,,,0.13,0.0,meteohub,2013-01-15 01:34:00,
2013-01-14 21:39:00,72.5,69.8,30.06,ESE,114,0.0,0.0,91,0.02,,,0.13,0.0,meteohub,2013-01-15 01:39:00,
2013-01-14 21:44:00,72.3,69.8,30.07,ESE,114,0.0,0.0,92,0.02,,,0.13,0.0,meteohub,2013-01-15 01:44:00,
2013-01-14 21:49:00,72.0,69.4,30.07,ESE,116,0.0,0.0,92,0.02,,,0.13,0.0,meteohub,2013-01-15 01:49:00,
2013-01-14 21:54:00,71.6,69.4,30.07,ESE,116,0.0,0.0,93,0.02,,,0.13,0.0,meteohub,2013-01-15 01:54:00,
2013-01-14 21:59:00,71.6,69.4,30.06,ESE,116,0.0,0.0,93,0.02,,,0.13,0.0,meteohub,2013-01-15 01:59:00,
2013-01-14 22:04:00,71.6,69.8,30.06,ESE,114,0.0,0.0,94,0.02,,,0.13,0.0,meteohub,2013-01-15 02:04:00,
2013-01-14 22:09:00,71.6,69.8,30.06,ESE,116,0.0,0.0,94,0.02,,,0.13,0.0,meteohub,2013-01-15 02:09:00,
2013-01-14 22:14:00,71.6,69.8,30.06,ESE,113,0.0,0.0,94,0.02,,,0.13,0.0,meteohub,2013-01-15 02:14:00,
2013-01-14 22:19:00,71.8,70.0,30.06,ESE,114,0.0,0.0,94,0.02,,,0.13,0.0,meteohub,2013-01-15 02:19:00,
2013-01-14 22:24:00,71.6,69.8,30.06,ESE,110,0.0,0.0,94,0.00,,,0.13,0.0,meteohub,2013-01-15 02:24:00,
2013-01-14 22:29:00,71.8,70.3,30.06,ESE,114,0.0,0.0,95,0.00,,,0.13,0.0,meteohub,2013-01-15 02:29:00,
2013-01-14 22:34:00,71.8,70.3,30.06,ESE,116,0.0,0.0,95,0.00,,,0.13,0.0,meteohub,2013-01-15 02:34:00,
2013-01-14 22:39:00,72.0,70.5,30.06,ESE,114,0.0,0.0,95,0.00,,,0.13,0.0,meteohub,2013-01-15 02:39:00,
2013-01-14 22:44:00,72.0,70.5,30.06,ESE,116,0.0,0.0,95,0.00,,,0.13,0.0,meteohub,2013-01-15 02:44:00,
2013-01-14 22:49:00,71.8,70.3,30.06,ESE,113,0.0,0.0,95,0.00,,,0.13,0.0,meteohub,2013-01-15 02:49:00,
2013-01-14 22:54:00,71.6,70.3,30.06,ESE,116,0.0,0.0,96,0.00,,,0.13,0.0,meteohub,2013-01-15 02:54:00,
2013-01-14 22:59:00,71.6,70.3,30.06,ESE,116,0.0,0.0,96,0.00,,,0.13,0.0,meteohub,2013-01-15 02:59:00,
2013-01-14 23:04:00,71.6,70.3,30.06,ESE,116,0.0,0.0,96,0.00,,,0.13,0.0,meteohub,2013-01-15 03:04:00,
2013-01-14 23:09:00,71.2,70.0,30.06,ESE,114,0.0,0.0,96,0.00,,,0.13,0.0,meteohub,2013-01-15 03:09:00,
2013-01-14 23:14:00,71.2,70.0,30.06,ESE,110,0.0,0.0,96,0.00,,,0.13,0.0,meteohub,2013-01-15 03:14:00,
2013-01-14 23:19:00,71.4,70.0,30.06,ESE,116,0.0,0.0,95,0.00,,,0.13,0.0,meteohub,2013-01-15 03:19:00,
2013-01-14 23:24:00,71.2,69.8,30.06,ESE,116,0.0,0.0,95,0.00,,,0.13,0.0,meteohub,2013-01-15 03:24:00,
2013-01-14 23:29:00,71.4,70.0,30.06,ESE,114,0.0,0.0,95,0.01,,,0.14,0.0,meteohub,2013-01-15 03:29:00,
2013-01-14 23:34:00,71.4,70.0,30.06,ESE,116,0.0,0.0,95,0.01,,,0.14,0.0,meteohub,2013-01-15 03:34:00,
2013-01-14 23:40:00,71.4,70.0,30.06,ESE,116,0.0,0.0,95,0.01,,,0.14,0.0,meteohub,2013-01-15 03:40:00,
2013-01-14 23:45:00,71.6,70.3,30.06,ESE,116,0.0,0.0,96,0.01,,,0.14,0.0,meteohub,2013-01-15 03:45:00,
2013-01-14 23:50:00,71.8,70.5,30.06,ESE,116,0.0,0.0,96,0.01,,,0.14,0.0,meteohub,2013-01-15 03:50:00,
2013-01-14 23:55:00,71.4,70.2,30.06,SE,144,0.0,0.0,96,0.01,,,0.14,0.0,meteohub,2013-01-15 03:55:00,